sensor_id;sensor_type;location;lat;lon;timestamp;P1;durP1;ratioP1;P2;durP2;ratioP2
65924;SDS011;66010;52.084;5.412;2023-12-22T00:00:32;4.80;;;1.23;;
65924;SDS011;66010;52.084;5.412;2023-12-22T00:02:58;5.38;;;1.10;;
65924;SDS011;66010;52.084;5.412;2023-12-22T00:05:28;4.75;;;1.30;;
65924;SDS011;66010;52.084;5.412;2023-12-22T00:07:57;7.75;;;1.45;;
65924;SDS011;66010;52.084;5.412;2023-12-22T00:10:23;4.85;;;1.33;;
65924;SDS011;66010;52.084;5.412;2023-12-22T00:12:50;6.07;;;1.25;;
65924;SDS011;66010;52.084;5.412;2023-12-22T00:15:17;6.28;;;1.30;;
65924;SDS011;66010;52.084;5.412;2023-12-22T00:17:43;3.88;;;1.15;;
65924;SDS011;66010;52.084;5.412;2023-12-22T00:20:10;5.68;;;1.30;;
65924;SDS011;66010;52.084;5.412;2023-12-22T00:22:40;5.72;;;1.30;;
65924;SDS011;66010;52.084;5.412;2023-12-22T00:25:06;5.18;;;1.30;;
65924;SDS011;66010;52.084;5.412;2023-12-22T00:27:36;4.85;;;1.20;;
65924;SDS011;66010;52.084;5.412;2023-12-22T00:30:03;5.25;;;1.30;;
65924;SDS011;66010;52.084;5.412;2023-12-22T00:32:29;3.42;;;1.23;;
65924;SDS011;66010;52.084;5.412;2023-12-22T00:34:56;5.32;;;1.23;;
65924;SDS011;66010;52.084;5.412;2023-12-22T00:37:24;3.83;;;1.00;;
65924;SDS011;66010;52.084;5.412;2023-12-22T00:39:51;5.63;;;1.20;;
65924;SDS011;66010;52.084;5.412;2023-12-22T00:42:20;4.57;;;1.23;;
65924;SDS011;66010;52.084;5.412;2023-12-22T00:44:46;4.85;;;1.20;;
65924;SDS011;66010;52.084;5.412;2023-12-22T00:47:13;9.55;;;1.20;;
65924;SDS011;66010;52.084;5.412;2023-12-22T00:49:40;6.32;;;1.10;;
65924;SDS011;66010;52.084;5.412;2023-12-22T00:52:06;5.35;;;1.20;;
65924;SDS011;66010;52.084;5.412;2023-12-22T00:54:33;5.13;;;1.10;;
65924;SDS011;66010;52.084;5.412;2023-12-22T00:56:59;3.95;;;1.10;;
65924;SDS011;66010;52.084;5.412;2023-12-22T00:59:26;3.75;;;0.90;;
65924;SDS011;66010;52.084;5.412;2023-12-22T01:01:52;4.38;;;1.20;;
65924;SDS011;66010;52.084;5.412;2023-12-22T01:04:19;5.45;;;1.38;;
65924;SDS011;66010;52.084;5.412;2023-12-22T01:06:46;4.85;;;0.90;;
65924;SDS011;66010;52.084;5.412;2023-12-22T01:09:12;6.22;;;0.95;;
65924;SDS011;66010;52.084;5.412;2023-12-22T01:11:41;5.28;;;1.05;;
65924;SDS011;66010;52.084;5.412;2023-12-22T01:14:07;4.70;;;1.02;;
65924;SDS011;66010;52.084;5.412;2023-12-22T01:16:34;6.10;;;1.30;;
65924;SDS011;66010;52.084;5.412;2023-12-22T01:19:01;6.00;;;1.17;;
65924;SDS011;66010;52.084;5.412;2023-12-22T01:21:27;5.95;;;1.02;;
65924;SDS011;66010;52.084;5.412;2023-12-22T01:23:54;4.70;;;0.90;;
65924;SDS011;66010;52.084;5.412;2023-12-22T01:26:20;4.72;;;0.90;;
65924;SDS011;66010;52.084;5.412;2023-12-22T01:28:47;3.28;;;0.85;;
65924;SDS011;66010;52.084;5.412;2023-12-22T01:31:13;5.40;;;1.00;;
65924;SDS011;66010;52.084;5.412;2023-12-22T01:33:40;4.43;;;1.05;;
65924;SDS011;66010;52.084;5.412;2023-12-22T01:36:06;4.93;;;1.10;;
65924;SDS011;66010;52.084;5.412;2023-12-22T01:38:33;2.45;;;0.65;;
65924;SDS011;66010;52.084;5.412;2023-12-22T01:41:00;5.88;;;0.93;;
65924;SDS011;66010;52.084;5.412;2023-12-22T01:43:26;8.93;;;1.40;;
65924;SDS011;66010;52.084;5.412;2023-12-22T01:45:56;7.40;;;1.20;;
65924;SDS011;66010;52.084;5.412;2023-12-22T01:48:25;6.25;;;1.13;;
65924;SDS011;66010;52.084;5.412;2023-12-22T01:50:52;6.35;;;1.25;;
65924;SDS011;66010;52.084;5.412;2023-12-22T01:53:19;4.50;;;1.00;;
65924;SDS011;66010;52.084;5.412;2023-12-22T01:55:47;6.20;;;1.40;;
65924;SDS011;66010;52.084;5.412;2023-12-22T01:58:14;5.40;;;1.40;;
65924;SDS011;66010;52.084;5.412;2023-12-22T02:00:41;8.27;;;1.20;;
65924;SDS011;66010;52.084;5.412;2023-12-22T02:03:08;5.28;;;1.15;;
65924;SDS011;66010;52.084;5.412;2023-12-22T02:05:35;7.68;;;1.33;;
65924;SDS011;66010;52.084;5.412;2023-12-22T02:08:02;6.20;;;1.08;;
65924;SDS011;66010;52.084;5.412;2023-12-22T02:10:28;4.43;;;1.17;;
65924;SDS011;66010;52.084;5.412;2023-12-22T02:12:55;9.57;;;1.40;;
65924;SDS011;66010;52.084;5.412;2023-12-22T02:15:21;5.93;;;1.08;;
65924;SDS011;66010;52.084;5.412;2023-12-22T02:17:49;5.43;;;1.00;;
65924;SDS011;66010;52.084;5.412;2023-12-22T02:20:18;5.00;;;1.17;;
65924;SDS011;66010;52.084;5.412;2023-12-22T02:22:46;4.85;;;0.93;;
65924;SDS011;66010;52.084;5.412;2023-12-22T02:25:17;5.32;;;1.38;;
65924;SDS011;66010;52.084;5.412;2023-12-22T02:27:50;6.10;;;1.30;;
65924;SDS011;66010;52.084;5.412;2023-12-22T02:30:22;6.55;;;1.33;;
65924;SDS011;66010;52.084;5.412;2023-12-22T02:32:51;6.40;;;1.10;;
65924;SDS011;66010;52.084;5.412;2023-12-22T02:35:19;5.18;;;1.15;;
65924;SDS011;66010;52.084;5.412;2023-12-22T02:37:47;7.43;;;1.35;;
65924;SDS011;66010;52.084;5.412;2023-12-22T02:42:41;8.73;;;1.13;;
65924;SDS011;66010;52.084;5.412;2023-12-22T02:45:12;7.13;;;1.20;;
65924;SDS011;66010;52.084;5.412;2023-12-22T02:47:39;7.72;;;1.50;;
65924;SDS011;66010;52.084;5.412;2023-12-22T02:50:06;5.03;;;1.10;;
65924;SDS011;66010;52.084;5.412;2023-12-22T02:52:33;9.45;;;1.50;;
65924;SDS011;66010;52.084;5.412;2023-12-22T02:55:00;13.63;;;1.52;;
65924;SDS011;66010;52.084;5.412;2023-12-22T02:57:26;10.50;;;1.27;;
65924;SDS011;66010;52.084;5.412;2023-12-22T02:59:53;8.00;;;1.27;;
65924;SDS011;66010;52.084;5.412;2023-12-22T03:02:19;7.03;;;1.50;;
65924;SDS011;66010;52.084;5.412;2023-12-22T03:04:46;9.73;;;1.55;;
65924;SDS011;66010;52.084;5.412;2023-12-22T03:07:13;9.07;;;1.70;;
65924;SDS011;66010;52.084;5.412;2023-12-22T03:09:40;9.30;;;1.60;;
65924;SDS011;66010;52.084;5.412;2023-12-22T03:12:07;7.82;;;1.50;;
65924;SDS011;66010;52.084;5.412;2023-12-22T03:14:33;6.75;;;1.25;;
65924;SDS011;66010;52.084;5.412;2023-12-22T03:17:01;11.65;;;1.73;;
65924;SDS011;66010;52.084;5.412;2023-12-22T03:19:27;10.32;;;1.50;;
65924;SDS011;66010;52.084;5.412;2023-12-22T03:21:54;9.05;;;1.60;;
65924;SDS011;66010;52.084;5.412;2023-12-22T03:24:20;8.65;;;1.63;;
65924;SDS011;66010;52.084;5.412;2023-12-22T03:26:50;5.10;;;1.35;;
65924;SDS011;66010;52.084;5.412;2023-12-22T03:29:17;5.80;;;1.10;;
65924;SDS011;66010;52.084;5.412;2023-12-22T03:31:44;6.55;;;1.50;;
65924;SDS011;66010;52.084;5.412;2023-12-22T03:34:11;8.02;;;1.50;;
65924;SDS011;66010;52.084;5.412;2023-12-22T03:36:38;5.50;;;1.40;;
65924;SDS011;66010;52.084;5.412;2023-12-22T03:39:04;8.40;;;1.75;;
65924;SDS011;66010;52.084;5.412;2023-12-22T03:41:31;8.85;;;1.50;;
65924;SDS011;66010;52.084;5.412;2023-12-22T03:43:58;7.47;;;1.65;;
65924;SDS011;66010;52.084;5.412;2023-12-22T03:46:24;8.15;;;1.35;;
65924;SDS011;66010;52.084;5.412;2023-12-22T03:48:51;8.15;;;1.60;;
65924;SDS011;66010;52.084;5.412;2023-12-22T03:51:18;9.82;;;1.60;;
65924;SDS011;66010;52.084;5.412;2023-12-22T03:53:44;8.80;;;1.58;;
65924;SDS011;66010;52.084;5.412;2023-12-22T03:56:11;9.18;;;1.50;;
65924;SDS011;66010;52.084;5.412;2023-12-22T03:58:38;10.27;;;2.05;;
65924;SDS011;66010;52.084;5.412;2023-12-22T04:01:04;10.88;;;2.08;;
65924;SDS011;66010;52.084;5.412;2023-12-22T04:03:33;8.30;;;1.65;;
65924;SDS011;66010;52.084;5.412;2023-12-22T04:06:03;9.82;;;1.80;;
65924;SDS011;66010;52.084;5.412;2023-12-22T04:08:30;7.45;;;1.42;;
65924;SDS011;66010;52.084;5.412;2023-12-22T04:10:57;7.47;;;1.50;;
65924;SDS011;66010;52.084;5.412;2023-12-22T04:13:23;6.35;;;1.35;;
65924;SDS011;66010;52.084;5.412;2023-12-22T04:15:50;7.70;;;1.30;;
65924;SDS011;66010;52.084;5.412;2023-12-22T04:18:17;8.82;;;1.70;;
65924;SDS011;66010;52.084;5.412;2023-12-22T04:20:44;9.30;;;1.60;;
65924;SDS011;66010;52.084;5.412;2023-12-22T04:23:11;11.20;;;1.58;;
65924;SDS011;66010;52.084;5.412;2023-12-22T04:25:37;6.97;;;1.25;;
65924;SDS011;66010;52.084;5.412;2023-12-22T04:28:04;5.93;;;1.33;;
65924;SDS011;66010;52.084;5.412;2023-12-22T04:30:30;8.80;;;1.42;;
65924;SDS011;66010;52.084;5.412;2023-12-22T04:32:59;6.15;;;1.05;;
65924;SDS011;66010;52.084;5.412;2023-12-22T04:35:27;5.15;;;1.20;;
65924;SDS011;66010;52.084;5.412;2023-12-22T04:37:53;7.22;;;1.20;;
65924;SDS011;66010;52.084;5.412;2023-12-22T04:40:20;7.00;;;1.33;;
65924;SDS011;66010;52.084;5.412;2023-12-22T04:42:46;7.85;;;1.23;;
65924;SDS011;66010;52.084;5.412;2023-12-22T04:45:13;7.47;;;1.50;;
65924;SDS011;66010;52.084;5.412;2023-12-22T04:47:40;6.88;;;1.30;;
65924;SDS011;66010;52.084;5.412;2023-12-22T04:50:06;7.15;;;1.48;;
65924;SDS011;66010;52.084;5.412;2023-12-22T04:52:33;7.78;;;1.45;;
65924;SDS011;66010;52.084;5.412;2023-12-22T04:55:00;10.13;;;1.38;;
65924;SDS011;66010;52.084;5.412;2023-12-22T04:57:26;7.43;;;1.48;;
65924;SDS011;66010;52.084;5.412;2023-12-22T04:59:53;9.02;;;1.50;;
65924;SDS011;66010;52.084;5.412;2023-12-22T05:02:19;8.38;;;1.42;;
65924;SDS011;66010;52.084;5.412;2023-12-22T05:04:46;5.88;;;1.20;;
65924;SDS011;66010;52.084;5.412;2023-12-22T05:07:12;5.95;;;1.17;;
65924;SDS011;66010;52.084;5.412;2023-12-22T05:09:40;7.72;;;1.30;;
65924;SDS011;66010;52.084;5.412;2023-12-22T05:12:07;5.15;;;1.20;;
65924;SDS011;66010;52.084;5.412;2023-12-22T05:14:33;8.10;;;1.20;;
65924;SDS011;66010;52.084;5.412;2023-12-22T05:17:00;7.10;;;1.20;;
65924;SDS011;66010;52.084;5.412;2023-12-22T05:19:27;9.85;;;1.30;;
65924;SDS011;66010;52.084;5.412;2023-12-22T05:21:54;10.85;;;1.58;;
65924;SDS011;66010;52.084;5.412;2023-12-22T05:24:23;7.30;;;1.38;;
65924;SDS011;66010;52.084;5.412;2023-12-22T05:26:49;8.90;;;1.48;;
65924;SDS011;66010;52.084;5.412;2023-12-22T05:29:16;9.48;;;1.35;;
65924;SDS011;66010;52.084;5.412;2023-12-22T05:31:42;10.35;;;1.83;;
65924;SDS011;66010;52.084;5.412;2023-12-22T05:34:09;9.15;;;1.40;;
65924;SDS011;66010;52.084;5.412;2023-12-22T05:36:37;7.43;;;1.25;;
65924;SDS011;66010;52.084;5.412;2023-12-22T05:39:03;8.10;;;1.77;;
65924;SDS011;66010;52.084;5.412;2023-12-22T05:41:32;9.27;;;1.45;;
65924;SDS011;66010;52.084;5.412;2023-12-22T05:43:59;9.30;;;1.63;;
65924;SDS011;66010;52.084;5.412;2023-12-22T05:46:26;4.97;;;1.10;;
65924;SDS011;66010;52.084;5.412;2023-12-22T05:48:52;8.52;;;1.40;;
65924;SDS011;66010;52.084;5.412;2023-12-22T05:51:22;6.88;;;1.40;;
65924;SDS011;66010;52.084;5.412;2023-12-22T05:53:48;9.50;;;1.55;;
65924;SDS011;66010;52.084;5.412;2023-12-22T05:56:18;8.15;;;1.52;;
65924;SDS011;66010;52.084;5.412;2023-12-22T05:58:48;9.60;;;1.60;;
65924;SDS011;66010;52.084;5.412;2023-12-22T06:01:16;9.27;;;1.75;;
65924;SDS011;66010;52.084;5.412;2023-12-22T06:03:45;7.82;;;1.50;;
65924;SDS011;66010;52.084;5.412;2023-12-22T06:06:12;9.68;;;1.35;;
65924;SDS011;66010;52.084;5.412;2023-12-22T06:08:38;8.73;;;1.65;;
65924;SDS011;66010;52.084;5.412;2023-12-22T06:11:05;8.60;;;1.58;;
65924;SDS011;66010;52.084;5.412;2023-12-22T06:13:32;10.85;;;1.42;;
65924;SDS011;66010;52.084;5.412;2023-12-22T06:16:00;7.80;;;1.40;;
65924;SDS011;66010;52.084;5.412;2023-12-22T06:18:26;6.22;;;1.38;;
65924;SDS011;66010;52.084;5.412;2023-12-22T06:20:53;8.98;;;1.40;;
65924;SDS011;66010;52.084;5.412;2023-12-22T06:23:20;8.05;;;1.40;;
65924;SDS011;66010;52.084;5.412;2023-12-22T06:25:47;7.15;;;1.23;;
65924;SDS011;66010;52.084;5.412;2023-12-22T06:28:14;8.23;;;1.20;;
65924;SDS011;66010;52.084;5.412;2023-12-22T06:30:43;8.90;;;1.70;;
65924;SDS011;66010;52.084;5.412;2023-12-22T06:33:10;7.60;;;1.27;;
65924;SDS011;66010;52.084;5.412;2023-12-22T06:35:38;6.97;;;1.33;;
65924;SDS011;66010;52.084;5.412;2023-12-22T06:38:07;10.00;;;1.48;;
65924;SDS011;66010;52.084;5.412;2023-12-22T06:40:34;8.55;;;1.52;;
65924;SDS011;66010;52.084;5.412;2023-12-22T06:43:01;7.50;;;1.23;;
65924;SDS011;66010;52.084;5.412;2023-12-22T06:45:28;8.88;;;1.48;;
65924;SDS011;66010;52.084;5.412;2023-12-22T06:47:54;10.18;;;1.73;;
65924;SDS011;66010;52.084;5.412;2023-12-22T06:50:21;8.20;;;1.48;;
65924;SDS011;66010;52.084;5.412;2023-12-22T06:52:48;9.30;;;1.60;;
65924;SDS011;66010;52.084;5.412;2023-12-22T06:55:16;9.15;;;1.65;;
65924;SDS011;66010;52.084;5.412;2023-12-22T06:57:43;7.63;;;1.80;;
65924;SDS011;66010;52.084;5.412;2023-12-22T07:00:11;8.98;;;1.38;;
65924;SDS011;66010;52.084;5.412;2023-12-22T07:02:38;9.07;;;1.48;;
65924;SDS011;66010;52.084;5.412;2023-12-22T07:07:54;6.65;;;1.30;;
65924;SDS011;66010;52.084;5.412;2023-12-22T07:10:20;8.93;;;1.85;;
65924;SDS011;66010;52.084;5.412;2023-12-22T07:12:47;6.35;;;1.40;;
65924;SDS011;66010;52.084;5.412;2023-12-22T07:15:13;7.72;;;1.65;;
65924;SDS011;66010;52.084;5.412;2023-12-22T07:17:40;7.50;;;1.42;;
65924;SDS011;66010;52.084;5.412;2023-12-22T07:20:07;8.05;;;1.60;;
65924;SDS011;66010;52.084;5.412;2023-12-22T07:22:33;9.68;;;1.60;;
65924;SDS011;66010;52.084;5.412;2023-12-22T07:25:00;10.25;;;1.63;;
65924;SDS011;66010;52.084;5.412;2023-12-22T07:27:26;10.23;;;1.73;;
65924;SDS011;66010;52.084;5.412;2023-12-22T07:29:54;9.45;;;1.75;;
65924;SDS011;66010;52.084;5.412;2023-12-22T07:32:20;6.63;;;1.48;;
65924;SDS011;66010;52.084;5.412;2023-12-22T07:34:47;9.00;;;1.80;;
65924;SDS011;66010;52.084;5.412;2023-12-22T07:37:13;10.80;;;1.60;;
65924;SDS011;66010;52.084;5.412;2023-12-22T07:39:42;11.80;;;2.00;;
65924;SDS011;66010;52.084;5.412;2023-12-22T07:42:11;9.68;;;2.00;;
65924;SDS011;66010;52.084;5.412;2023-12-22T07:44:38;9.70;;;1.85;;
65924;SDS011;66010;52.084;5.412;2023-12-22T07:47:05;8.90;;;2.00;;
65924;SDS011;66010;52.084;5.412;2023-12-22T07:49:33;10.38;;;2.03;;
65924;SDS011;66010;52.084;5.412;2023-12-22T07:52:00;11.95;;;1.90;;
65924;SDS011;66010;52.084;5.412;2023-12-22T07:54:29;12.27;;;2.28;;
65924;SDS011;66010;52.084;5.412;2023-12-22T07:56:56;9.50;;;1.77;;
65924;SDS011;66010;52.084;5.412;2023-12-22T07:59:22;7.72;;;1.95;;
65924;SDS011;66010;52.084;5.412;2023-12-22T08:01:57;10.45;;;1.83;;
65924;SDS011;66010;52.084;5.412;2023-12-22T08:04:23;10.27;;;1.80;;
65924;SDS011;66010;52.084;5.412;2023-12-22T08:06:50;10.35;;;1.80;;
65924;SDS011;66010;52.084;5.412;2023-12-22T08:09:18;8.95;;;1.70;;
65924;SDS011;66010;52.084;5.412;2023-12-22T08:11:45;12.02;;;2.05;;
65924;SDS011;66010;52.084;5.412;2023-12-22T08:14:13;9.95;;;1.90;;
65924;SDS011;66010;52.084;5.412;2023-12-22T08:16:40;10.40;;;1.80;;
65924;SDS011;66010;52.084;5.412;2023-12-22T08:19:07;12.43;;;1.88;;
65924;SDS011;66010;52.084;5.412;2023-12-22T08:21:33;9.60;;;1.88;;
65924;SDS011;66010;52.084;5.412;2023-12-22T08:24:11;10.07;;;1.90;;
65924;SDS011;66010;52.084;5.412;2023-12-22T08:26:48;9.15;;;1.77;;
65924;SDS011;66010;52.084;5.412;2023-12-22T08:29:14;10.13;;;1.95;;
65924;SDS011;66010;52.084;5.412;2023-12-22T08:31:42;8.30;;;1.77;;
65924;SDS011;66010;52.084;5.412;2023-12-22T08:34:10;7.43;;;1.85;;
65924;SDS011;66010;52.084;5.412;2023-12-22T08:36:37;12.02;;;1.60;;
65924;SDS011;66010;52.084;5.412;2023-12-22T08:39:04;9.63;;;1.80;;
65924;SDS011;66010;52.084;5.412;2023-12-22T08:41:34;8.43;;;1.70;;
65924;SDS011;66010;52.084;5.412;2023-12-22T08:44:04;10.68;;;2.08;;
65924;SDS011;66010;52.084;5.412;2023-12-22T08:46:32;8.23;;;1.65;;
65924;SDS011;66010;52.084;5.412;2023-12-22T08:48:58;8.85;;;1.85;;
65924;SDS011;66010;52.084;5.412;2023-12-22T08:51:26;10.23;;;1.55;;
65924;SDS011;66010;52.084;5.412;2023-12-22T08:53:55;6.90;;;1.40;;
65924;SDS011;66010;52.084;5.412;2023-12-22T08:56:22;11.30;;;2.08;;
65924;SDS011;66010;52.084;5.412;2023-12-22T08:58:52;8.90;;;1.92;;
65924;SDS011;66010;52.084;5.412;2023-12-22T09:01:21;8.68;;;1.85;;
65924;SDS011;66010;52.084;5.412;2023-12-22T09:03:48;8.43;;;2.00;;
65924;SDS011;66010;52.084;5.412;2023-12-22T09:06:15;7.25;;;1.75;;
65924;SDS011;66010;52.084;5.412;2023-12-22T09:08:42;7.15;;;1.80;;
65924;SDS011;66010;52.084;5.412;2023-12-22T09:11:12;5.95;;;1.55;;
65924;SDS011;66010;52.084;5.412;2023-12-22T09:13:39;6.03;;;1.50;;
65924;SDS011;66010;52.084;5.412;2023-12-22T09:16:06;8.50;;;1.60;;
65924;SDS011;66010;52.084;5.412;2023-12-22T09:18:32;6.78;;;1.60;;
65924;SDS011;66010;52.084;5.412;2023-12-22T09:23:26;8.50;;;2.00;;
65924;SDS011;66010;52.084;5.412;2023-12-22T09:25:52;6.95;;;1.70;;
65924;SDS011;66010;52.084;5.412;2023-12-22T09:28:19;6.65;;;1.70;;
65924;SDS011;66010;52.084;5.412;2023-12-22T09:30:45;7.95;;;1.48;;
65924;SDS011;66010;52.084;5.412;2023-12-22T09:33:12;7.13;;;1.60;;
65924;SDS011;66010;52.084;5.412;2023-12-22T09:35:39;6.93;;;1.40;;
65924;SDS011;66010;52.084;5.412;2023-12-22T09:38:08;7.75;;;1.65;;
65924;SDS011;66010;52.084;5.412;2023-12-22T09:40:36;5.78;;;1.65;;
65924;SDS011;66010;52.084;5.412;2023-12-22T09:43:03;6.40;;;1.60;;
65924;SDS011;66010;52.084;5.412;2023-12-22T09:45:32;7.50;;;1.40;;
65924;SDS011;66010;52.084;5.412;2023-12-22T09:48:00;4.70;;;1.20;;
65924;SDS011;66010;52.084;5.412;2023-12-22T09:50:27;6.90;;;1.50;;
65924;SDS011;66010;52.084;5.412;2023-12-22T09:52:54;4.25;;;1.40;;
65924;SDS011;66010;52.084;5.412;2023-12-22T09:55:21;7.45;;;1.50;;
65924;SDS011;66010;52.084;5.412;2023-12-22T09:57:47;6.60;;;1.50;;
65924;SDS011;66010;52.084;5.412;2023-12-22T10:00:15;3.53;;;1.13;;
65924;SDS011;66010;52.084;5.412;2023-12-22T10:02:44;4.50;;;1.23;;
65924;SDS011;66010;52.084;5.412;2023-12-22T10:05:12;4.40;;;1.23;;
65924;SDS011;66010;52.084;5.412;2023-12-22T10:07:45;4.88;;;1.20;;
65924;SDS011;66010;52.084;5.412;2023-12-22T10:10:12;6.18;;;1.40;;
65924;SDS011;66010;52.084;5.412;2023-12-22T10:12:38;4.50;;;1.27;;
65924;SDS011;66010;52.084;5.412;2023-12-22T10:15:06;5.07;;;1.45;;
65924;SDS011;66010;52.084;5.412;2023-12-22T10:17:34;4.18;;;1.08;;
65924;SDS011;66010;52.084;5.412;2023-12-22T10:20:01;4.40;;;1.23;;
65924;SDS011;66010;52.084;5.412;2023-12-22T10:22:27;4.28;;;1.15;;
65924;SDS011;66010;52.084;5.412;2023-12-22T10:24:54;5.05;;;1.30;;
65924;SDS011;66010;52.084;5.412;2023-12-22T10:27:20;4.00;;;1.20;;
65924;SDS011;66010;52.084;5.412;2023-12-22T10:29:53;4.93;;;1.30;;
65924;SDS011;66010;52.084;5.412;2023-12-22T10:32:20;4.57;;;1.20;;
65924;SDS011;66010;52.084;5.412;2023-12-22T10:34:48;3.55;;;1.10;;
65924;SDS011;66010;52.084;5.412;2023-12-22T10:37:14;3.30;;;1.08;;
65924;SDS011;66010;52.084;5.412;2023-12-22T10:39:41;4.95;;;1.20;;
65924;SDS011;66010;52.084;5.412;2023-12-22T10:42:08;4.40;;;1.10;;
65924;SDS011;66010;52.084;5.412;2023-12-22T10:44:36;5.35;;;1.20;;
65924;SDS011;66010;52.084;5.412;2023-12-22T10:47:06;4.78;;;1.13;;
65924;SDS011;66010;52.084;5.412;2023-12-22T10:49:32;3.88;;;1.00;;
65924;SDS011;66010;52.084;5.412;2023-12-22T10:52:00;5.15;;;1.20;;
65924;SDS011;66010;52.084;5.412;2023-12-22T10:54:27;4.95;;;1.25;;
65924;SDS011;66010;52.084;5.412;2023-12-22T10:56:57;3.22;;;1.10;;
65924;SDS011;66010;52.084;5.412;2023-12-22T10:59:24;3.38;;;1.00;;
65924;SDS011;66010;52.084;5.412;2023-12-22T11:01:54;4.45;;;1.02;;
65924;SDS011;66010;52.084;5.412;2023-12-22T11:04:23;5.90;;;1.20;;
65924;SDS011;66010;52.084;5.412;2023-12-22T11:06:52;3.35;;;1.00;;
65924;SDS011;66010;52.084;5.412;2023-12-22T11:09:21;2.38;;;0.90;;
65924;SDS011;66010;52.084;5.412;2023-12-22T11:11:49;3.92;;;0.93;;
65924;SDS011;66010;52.084;5.412;2023-12-22T11:14:16;4.03;;;0.93;;
65924;SDS011;66010;52.084;5.412;2023-12-22T11:16:43;3.35;;;1.10;;
65924;SDS011;66010;52.084;5.412;2023-12-22T11:19:15;4.25;;;0.90;;
65924;SDS011;66010;52.084;5.412;2023-12-22T11:21:42;4.50;;;1.00;;
65924;SDS011;66010;52.084;5.412;2023-12-22T11:24:09;3.30;;;0.90;;
65924;SDS011;66010;52.084;5.412;2023-12-22T11:26:37;5.38;;;1.17;;
65924;SDS011;66010;52.084;5.412;2023-12-22T11:29:05;3.75;;;0.90;;
65924;SDS011;66010;52.084;5.412;2023-12-22T11:31:33;4.45;;;1.00;;
65924;SDS011;66010;52.084;5.412;2023-12-22T11:36:34;2.40;;;0.80;;
65924;SDS011;66010;52.084;5.412;2023-12-22T11:39:03;3.95;;;1.00;;
65924;SDS011;66010;52.084;5.412;2023-12-22T11:41:31;3.80;;;1.00;;
65924;SDS011;66010;52.084;5.412;2023-12-22T11:43:59;2.95;;;0.95;;
65924;SDS011;66010;52.084;5.412;2023-12-22T11:46:26;3.30;;;0.90;;
65924;SDS011;66010;52.084;5.412;2023-12-22T11:48:53;3.92;;;0.93;;
65924;SDS011;66010;52.084;5.412;2023-12-22T11:51:22;4.75;;;1.00;;
65924;SDS011;66010;52.084;5.412;2023-12-22T11:53:48;2.80;;;0.80;;
65924;SDS011;66010;52.084;5.412;2023-12-22T11:56:15;4.18;;;0.95;;
65924;SDS011;66010;52.084;5.412;2023-12-22T11:58:45;3.70;;;0.90;;
65924;SDS011;66010;52.084;5.412;2023-12-22T12:01:22;6.30;;;1.00;;
65924;SDS011;66010;52.084;5.412;2023-12-22T12:03:50;3.70;;;1.02;;
65924;SDS011;66010;52.084;5.412;2023-12-22T12:08:52;3.03;;;0.90;;
65924;SDS011;66010;52.084;5.412;2023-12-22T12:11:20;4.10;;;1.00;;
65924;SDS011;66010;52.084;5.412;2023-12-22T12:13:46;2.50;;;0.90;;
65924;SDS011;66010;52.084;5.412;2023-12-22T12:16:14;4.18;;;1.00;;
65924;SDS011;66010;52.084;5.412;2023-12-22T12:18:41;2.72;;;1.00;;
65924;SDS011;66010;52.084;5.412;2023-12-22T12:21:09;4.22;;;1.05;;
65924;SDS011;66010;52.084;5.412;2023-12-22T12:23:37;4.60;;;1.10;;
65924;SDS011;66010;52.084;5.412;2023-12-22T12:26:07;4.38;;;1.00;;
65924;SDS011;66010;52.084;5.412;2023-12-22T12:28:35;2.00;;;0.60;;
65924;SDS011;66010;52.084;5.412;2023-12-22T12:31:03;3.65;;;0.98;;
65924;SDS011;66010;52.084;5.412;2023-12-22T12:33:30;2.25;;;0.80;;
65924;SDS011;66010;52.084;5.412;2023-12-22T12:35:57;2.00;;;0.80;;
65924;SDS011;66010;52.084;5.412;2023-12-22T12:41:04;2.08;;;0.80;;
65924;SDS011;66010;52.084;5.412;2023-12-22T12:43:32;2.90;;;0.80;;
65924;SDS011;66010;52.084;5.412;2023-12-22T12:46:05;3.95;;;0.85;;
65924;SDS011;66010;52.084;5.412;2023-12-22T12:48:32;2.33;;;0.80;;
65924;SDS011;66010;52.084;5.412;2023-12-22T12:51:05;2.90;;;0.80;;
65924;SDS011;66010;52.084;5.412;2023-12-22T12:53:32;1.73;;;0.80;;
65924;SDS011;66010;52.084;5.412;2023-12-22T12:56:01;3.25;;;0.90;;
65924;SDS011;66010;52.084;5.412;2023-12-22T12:58:29;3.25;;;0.80;;
65924;SDS011;66010;52.084;5.412;2023-12-22T13:01:09;2.58;;;0.80;;
65924;SDS011;66010;52.084;5.412;2023-12-22T13:03:54;3.42;;;0.80;;
65924;SDS011;66010;52.084;5.412;2023-12-22T13:06:21;3.13;;;0.80;;
65924;SDS011;66010;52.084;5.412;2023-12-22T13:08:49;3.28;;;0.80;;
65924;SDS011;66010;52.084;5.412;2023-12-22T13:11:20;3.50;;;0.85;;
65924;SDS011;66010;52.084;5.412;2023-12-22T13:13:47;4.53;;;0.88;;
65924;SDS011;66010;52.084;5.412;2023-12-22T13:16:17;3.38;;;0.90;;
65924;SDS011;66010;52.084;5.412;2023-12-22T13:18:44;3.42;;;0.82;;
65924;SDS011;66010;52.084;5.412;2023-12-22T13:21:11;3.10;;;0.93;;
65924;SDS011;66010;52.084;5.412;2023-12-22T13:23:37;3.03;;;0.70;;
65924;SDS011;66010;52.084;5.412;2023-12-22T13:26:04;4.15;;;0.98;;
65924;SDS011;66010;52.084;5.412;2023-12-22T13:28:31;4.45;;;1.00;;
65924;SDS011;66010;52.084;5.412;2023-12-22T13:30:58;3.83;;;1.00;;
65924;SDS011;66010;52.084;5.412;2023-12-22T13:33:24;3.28;;;1.00;;
65924;SDS011;66010;52.084;5.412;2023-12-22T13:35:58;5.28;;;1.00;;
65924;SDS011;66010;52.084;5.412;2023-12-22T13:38:25;2.58;;;0.90;;
65924;SDS011;66010;52.084;5.412;2023-12-22T13:40:51;4.18;;;1.00;;
65924;SDS011;66010;52.084;5.412;2023-12-22T13:43:18;4.93;;;1.00;;
65924;SDS011;66010;52.084;5.412;2023-12-22T13:45:48;3.08;;;0.80;;
65924;SDS011;66010;52.084;5.412;2023-12-22T13:48:15;4.90;;;1.10;;
65924;SDS011;66010;52.084;5.412;2023-12-22T13:50:42;3.00;;;0.95;;
65924;SDS011;66010;52.084;5.412;2023-12-22T13:53:09;4.90;;;1.05;;
65924;SDS011;66010;52.084;5.412;2023-12-22T13:58:04;2.40;;;0.80;;
65924;SDS011;66010;52.084;5.412;2023-12-22T14:00:30;3.75;;;0.88;;
65924;SDS011;66010;52.084;5.412;2023-12-22T14:03:01;5.05;;;1.10;;
65924;SDS011;66010;52.084;5.412;2023-12-22T14:05:28;4.32;;;1.00;;
65924;SDS011;66010;52.084;5.412;2023-12-22T14:08:00;4.78;;;0.95;;
65924;SDS011;66010;52.084;5.412;2023-12-22T14:10:27;3.65;;;0.93;;
65924;SDS011;66010;52.084;5.412;2023-12-22T14:12:54;3.72;;;0.82;;
65924;SDS011;66010;52.084;5.412;2023-12-22T14:15:20;4.68;;;1.13;;
65924;SDS011;66010;52.084;5.412;2023-12-22T14:17:52;3.78;;;1.00;;
65924;SDS011;66010;52.084;5.412;2023-12-22T14:20:19;3.95;;;0.93;;
65924;SDS011;66010;52.084;5.412;2023-12-22T14:22:46;3.53;;;1.00;;
65924;SDS011;66010;52.084;5.412;2023-12-22T14:25:13;2.38;;;0.85;;
65924;SDS011;66010;52.084;5.412;2023-12-22T14:27:39;4.63;;;1.00;;
65924;SDS011;66010;52.084;5.412;2023-12-22T14:30:06;3.35;;;0.90;;
65924;SDS011;66010;52.084;5.412;2023-12-22T14:32:32;3.10;;;0.95;;
65924;SDS011;66010;52.084;5.412;2023-12-22T14:34:59;3.30;;;1.00;;
65924;SDS011;66010;52.084;5.412;2023-12-22T14:37:31;2.63;;;0.98;;
65924;SDS011;66010;52.084;5.412;2023-12-22T14:39:58;4.88;;;1.15;;
65924;SDS011;66010;52.084;5.412;2023-12-22T14:42:24;5.22;;;1.10;;
65924;SDS011;66010;52.084;5.412;2023-12-22T14:44:51;4.18;;;1.17;;
65924;SDS011;66010;52.084;5.412;2023-12-22T14:47:17;3.63;;;0.90;;
65924;SDS011;66010;52.084;5.412;2023-12-22T14:49:44;4.70;;;0.90;;
65924;SDS011;66010;52.084;5.412;2023-12-22T14:52:11;3.17;;;0.95;;
65924;SDS011;66010;52.084;5.412;2023-12-22T14:54:37;4.25;;;1.00;;
65924;SDS011;66010;52.084;5.412;2023-12-22T14:57:04;4.22;;;0.98;;
65924;SDS011;66010;52.084;5.412;2023-12-22T14:59:30;3.63;;;1.00;;
65924;SDS011;66010;52.084;5.412;2023-12-22T15:01:57;4.35;;;0.98;;
65924;SDS011;66010;52.084;5.412;2023-12-22T15:04:24;2.45;;;0.90;;